Time;durP1;ratioP1;P1;durP2;ratioP2;P2;SDS_P1;SDS_P2;PMS_P1;PMS_P2;Temp;Humidity;BMP_temperature;BMP_pressure;BME280_temperature;BME280_humidity;BME280_pressure;Samples;Min_cycle;Max_cycle;Signal;HPM_P1;HPM_P2
2022/09/11 07:27:38;;;;;;;;;;;;;;;19.03;58.07;97187.03;4256249;27;11022;-76
2022/09/11 07:29:41;;;;;;;;;;;;;;;19.34;57.54;97191.09;4232357;27;5766;-76
2022/09/11 07:31:45;;;;;;;;;;;;;;;19.57;57.01;97187.53;4223112;27;5738;-76
2022/09/11 07:33:49;;;;;;;;;;;;;;;19.75;56.80;97190.84;4218113;28;5164;-77
2022/09/11 07:35:52;;;;;;;;;;;;;;;19.90;56.30;97190.28;4229289;27;5787;-77
2022/09/11 07:37:55;;;;;;;;;;;;;;;20.00;56.18;97186.94;4231448;28;5695;-77
2022/09/11 07:39:57;;;;;;;;;;;;;;;20.10;56.11;97187.13;4231134;28;5090;-77
2022/09/11 07:42:06;;;;;;;;;;;;;;;20.19;55.72;97182.97;4219562;28;5808;-81
2022/09/11 07:44:10;;;;;;;;;;;;;;;20.30;55.80;97190.13;4241838;27;5773;-76
2022/09/11 07:46:13;;;;;;;;;;;;;;;20.38;55.49;97185.38;4229257;28;5667;-76
2022/09/11 07:48:16;;;;;;;;;;;;;;;20.45;55.48;97186.88;4214007;28;5704;-77
2022/09/11 07:50:19;;;;;;;;;;;;;;;20.50;55.19;97180.75;4228375;28;5671;-77
2022/09/11 07:52:22;;;;;;;;;;;;;;;20.57;55.17;97178.72;4226978;28;5796;-78
2022/09/11 07:54:27;;;;;;;;;;;;;;;20.63;55.16;97185.81;4214380;28;5753;-75
2022/09/11 07:56:30;;;;;;;;;;;;;;;20.69;54.96;97175.94;4218576;28;7734;-75
2022/09/11 07:58:34;;;;;;;;;;;;;;;20.75;54.94;97178.44;4219433;28;5712;-75
2022/09/11 08:00:38;;;;;;;;;;;;;;;20.78;54.66;97172.56;4230505;28;6018;-75
2022/09/11 08:02:41;;;;;;;;;;;;;;;20.81;54.51;97182.81;4230177;28;7710;-75
2022/09/11 08:04:44;;;;;;;;;;;;;;;20.82;54.91;97173.69;4231129;28;5739;-74
2022/09/11 08:06:47;;;;;;;;;;;;;;;20.85;54.50;97175.91;4230940;28;5081;-76
2022/09/11 08:08:52;;;;;;;;;;;;;;;20.89;54.68;97184.25;4230975;28;6183;-76
2022/09/11 08:10:56;;;;;;;;;;;;;;;20.91;54.40;97182.94;4230765;28;5687;-76
2022/09/11 08:12:59;;;;;;;;;;;;;;;20.94;54.60;97184.31;4229301;28;5766;-75
2022/09/11 08:15:02;;;;;;;;;;;;;;;20.95;54.45;97172.50;4230827;28;5775;-71
2022/09/11 08:17:06;;;;;;;;;;;;;;;20.98;54.46;97177.41;4230169;28;5664;-76
2022/09/11 08:19:14;;;;;;;;;;;;;;;21.00;54.03;97186.00;4230520;28;7706;-76
2022/09/11 08:21:17;;;;;;;;;;;;;;;21.01;54.21;97189.50;4229264;28;6413;-74
2022/09/11 08:23:21;;;;;;;;;;;;;;;21.03;54.18;97192.75;4230469;28;5688;-75
2022/09/11 08:25:23;;;;;;;;;;;;;;;21.05;53.88;97187.94;4230394;28;6310;-73
2022/09/11 08:27:26;;;;;;;;;;;;;;;21.07;54.17;97188.53;4208289;28;5756;-75
2022/09/11 08:29:29;;;;;;;;;;;;;;;21.08;53.86;97180.22;4202348;28;5693;-74
2022/09/11 08:31:32;;;;;;;;;;;;;;;21.10;53.92;97188.03;4202639;28;5896;-75
2022/09/11 08:33:37;;;;;;;;;;;;;;;21.11;53.90;97185.06;4201180;28;5849;-75
2022/09/11 08:35:40;;;;;;;;;;;;;;;21.14;53.61;97184.56;4202430;28;5690;-74
2022/09/11 08:37:42;;;;;;;;;;;;;;;21.15;53.47;97188.88;4202284;28;5713;-75
2022/09/11 08:39:45;;;;;;;;;;;;;;;21.17;53.54;97184.06;4202268;28;5764;-75
2022/09/11 08:41:52;;;;;;;;;;;;;;;21.20;53.78;97180.88;4202402;28;5776;-75
2022/09/11 08:43:58;;;;;;;;;;;;;;;21.22;53.39;97186.00;4202162;28;5685;-76
2022/09/11 08:46:05;;;;;;;;;;;;;;;21.23;53.32;97184.94;4202258;28;5725;-74
2022/09/11 08:48:11;;;;;;;;;;;;;;;21.25;53.30;97187.38;4212004;28;5687;-75
2022/09/11 08:50:20;;;;;;;;;;;;;;;21.27;53.54;97188.78;4230128;28;5654;-75
2022/09/11 08:52:22;;;;;;;;;;;;;;;21.29;53.58;97183.13;4224269;28;5678;-76
2022/09/11 08:54:28;;;;;;;;;;;;;;;21.30;53.52;97182.09;4218616;28;5117;-75
2022/09/11 08:56:33;;;;;;;;;;;;;;;21.32;53.40;97182.66;4228646;28;5786;-74
2022/09/11 08:58:44;;;;;;;;;;;;;;;21.34;53.30;97184.03;4202220;28;5831;-74
2022/09/11 09:00:54;;;;;;;;;;;;;;;21.33;53.11;97168.16;4205539;28;5770;-74
2022/09/11 09:03:29;;;;;;;;;;;;;;;21.38;53.25;97177.06;4211550;28;6467;-75
2022/09/11 09:05:42;;;;;;;;;;;;;;;21.37;53.39;97180.81;4231510;28;5813;-71
2022/09/11 09:07:56;;;;;;;;;;;;;;;21.38;52.89;97171.69;4222343;28;5670;-80
2022/09/11 09:10:06;;;;;;;;;;;;;;;21.40;53.00;97180.31;4206239;28;5663;-75
2022/09/11 09:12:19;;;;;;;;;;;;;;;21.41;53.07;97181.97;4208179;28;6184;-79
2022/09/11 09:14:33;;;;;;;;;;;;;;;21.41;53.09;97176.59;4211071;28;5683;-78
2022/09/11 09:16:49;;;;;;;;;;;;;;;21.41;53.10;97184.66;4213068;28;5696;-81
2022/09/11 09:18:59;;;;;;;;;;;;;;;21.44;52.89;97181.44;4202605;28;5779;-82
2022/09/11 09:21:09;;;;;;;;;;;;;;;21.46;52.99;97179.31;4210832;28;5989;-81
2022/09/11 09:23:19;;;;;;;;;;;;;;;21.47;52.81;97188.19;4206483;28;5762;-82
2022/09/11 09:25:23;;;;;;;;;;;;;;;21.45;52.63;97180.38;4205662;28;5749;-81
2022/09/11 09:27:29;;;;;;;;;;;;;;;21.47;52.86;97180.94;4203431;28;5652;-82
2022/09/11 09:29:37;;;;;;;;;;;;;;;21.51;52.84;97179.34;4205272;28;5900;-82
2022/09/11 09:31:43;;;;;;;;;;;;;;;21.53;52.58;97168.38;4207269;28;5700;-80
2022/09/11 09:33:51;;;;;;;;;;;;;;;21.51;52.77;97171.28;4205631;28;5819;-81
2022/09/11 09:35:54;;;;;;;;;;;;;;;21.50;52.72;97168.84;4209467;28;5696;-81
2022/09/11 09:37:59;;;;;;;;;;;;;;;21.51;52.54;97165.91;4208660;28;6006;-82
2022/09/11 09:40:06;;;;;;;;;;;;;;;21.54;52.45;97163.81;4202038;28;5803;-82
2022/09/11 09:42:27;;;;;;;;;;;;;;;21.58;52.47;97162.22;4210707;28;5703;-81
2022/09/11 09:44:45;;;;;;;;;;;;;;;21.59;52.49;97161.16;4207182;28;5664;-81
2022/09/11 09:46:49;;;;;;;;;;;;;;;21.62;52.67;97160.63;4208337;28;5902;-74
2022/09/11 09:48:54;;;;;;;;;;;;;;;21.62;52.22;97160.63;4203354;28;5659;-72
2022/09/11 09:50:57;;;;;;;;;;;;;;;21.66;52.56;97156.38;4211217;28;5939;-72
2022/09/11 09:53:11;;;;;;;;;;;;;;;21.68;52.34;97154.25;4203718;28;5704;-72
2022/09/11 09:55:16;;;;;;;;;;;;;;;21.74;52.53;97156.72;4210653;28;5898;-72
2022/09/11 09:57:19;;;;;;;;;;;;;;;21.76;52.45;97156.47;4215419;28;6360;-71
2022/09/11 09:59:26;;;;;;;;;;;;;;;21.77;52.32;97152.72;4214356;28;5774;-73
2022/09/11 10:01:49;;;;;;;;;;;;;;;21.80;52.30;97152.19;4206549;28;5892;-72
2022/09/11 10:04:11;;;;;;;;;;;;;;;21.81;52.40;97153.81;4207055;28;7697;-73
2022/09/11 10:06:14;;;;;;;;;;;;;;;21.83;51.93;97148.19;4208362;28;5797;-70
2022/09/11 10:08:37;;;;;;;;;;;;;;;21.83;52.14;97149.00;4209469;28;5994;-69
2022/09/11 10:10:40;;;;;;;;;;;;;;;21.86;52.10;97136.91;4186529;28;7717;-76
2022/09/11 10:12:45;;;;;;;;;;;;;;;21.88;52.35;97140.97;4192616;28;5774;-75
2022/09/11 10:14:53;;;;;;;;;;;;;;;21.89;52.08;97139.91;4187643;28;5757;-75
2022/09/11 10:16:56;;;;;;;;;;;;;;;21.91;52.25;97134.25;4183761;28;7297;-77
2022/09/11 10:18:59;;;;;;;;;;;;;;;21.93;51.81;97132.13;4191912;28;5689;-68
2022/09/11 10:21:16;;;;;;;;;;;;;;;21.94;52.12;97134.53;4189780;28;5940;-69
2022/09/11 10:23:24;;;;;;;;;;;;;;;21.95;52.02;97133.47;4192214;28;5929;-67
2022/09/11 10:25:28;;;;;;;;;;;;;;;21.97;51.74;97134.06;4189144;28;5860;-67
2022/09/11 10:27:35;;;;;;;;;;;;;;;21.98;52.03;97127.59;4185951;28;5876;-67
2022/09/11 10:29:37;;;;;;;;;;;;;;;22.00;51.84;97127.34;4188400;28;5765;-67
2022/09/11 10:31:48;;;;;;;;;;;;;;;21.97;51.78;97125.97;4189075;28;5745;-68
2022/09/11 10:33:55;;;;;;;;;;;;;;;21.99;51.87;97125.72;4187861;28;5942;-68
2022/09/11 10:36:03;;;;;;;;;;;;;;;22.00;51.56;97124.66;4192402;28;5767;-68
2022/09/11 10:38:17;;;;;;;;;;;;;;;22.00;51.82;97125.47;4189615;28;5724;-68
2022/09/11 10:40:22;;;;;;;;;;;;;;;22.03;51.48;97124.94;4187024;28;5934;-67
2022/09/11 10:42:28;;;;;;;;;;;;;;;22.05;51.71;97122.78;4184066;28;5738;-68
2022/09/11 10:44:34;;;;;;;;;;;;;;;22.04;51.29;97121.16;4185077;28;5797;-67
2022/09/11 10:46:38;;;;;;;;;;;;;;;22.05;51.75;97122.78;4189193;28;5823;-69
2022/09/11 10:48:42;;;;;;;;;;;;;;;22.07;51.71;97126.06;4187432;28;5780;-70
2022/09/11 10:50:44;;;;;;;;;;;;;;;22.11;51.44;97125.56;4191243;28;5705;-69
2022/09/11 10:52:55;;;;;;;;;;;;;;;22.14;51.56;97119.66;4200010;28;5697;-68
2022/09/11 10:55:05;;;;;;;;;;;;;;;22.17;51.54;97119.13;4191072;28;5086;-70
2022/09/11 10:57:17;;;;;;;;;;;;;;;22.20;51.06;97113.22;4185756;28;5867;-71
2022/09/11 10:59:31;;;;;;;;;;;;;;;22.22;51.51;97111.91;4188594;28;5721;-69
2022/09/11 11:01:34;;;;;;;;;;;;;;;22.21;51.37;97109.47;4195212;28;5913;-69
2022/09/11 11:03:37;;;;;;;;;;;;;;;22.24;51.46;97108.97;4188249;28;5912;-72
2022/09/11 11:05:53;;;;;;;;;;;;;;;22.26;51.29;97109.50;4188387;28;5900;-70
2022/09/11 11:08:22;;;;;;;;;;;;;;;22.30;51.00;97107.91;4189088;28;6391;-80
2022/09/11 11:10:38;;;;;;;;;;;;;;;22.30;51.17;97102.50;4190179;28;7207;-70
2022/09/11 11:12:53;;;;;;;;;;;;;;;22.30;51.36;97095.25;4191941;28;5776;-76
2022/09/11 11:15:12;;;;;;;;;;;;;;;22.33;51.05;97091.25;4201841;28;5713;-78
2022/09/11 11:17:22;;;;;;;;;;;;;;;22.37;51.20;97092.34;4188238;28;5683;-70
2022/09/11 11:19:52;;;;;;;;;;;;;;;22.37;51.13;97093.13;4193364;28;5749;-70
2022/09/11 11:22:03;;;;;;;;;;;;;;;22.38;50.96;97086.69;4191712;28;5689;-68
2022/09/11 11:24:20;;;;;;;;;;;;;;;22.41;50.72;97087.22;4195464;28;5822;-70
2022/09/11 11:26:36;;;;;;;;;;;;;;;22.41;50.76;97095.31;4187883;28;6533;-70
2022/09/11 11:28:57;;;;;;;;;;;;;;;22.41;51.08;97096.13;4190471;28;6350;-76
2022/09/11 11:31:15;;;;;;;;;;;;;;;22.43;50.99;97088.59;4188009;28;5707;-77
2022/09/11 11:33:53;;;;;;;;;;;;;;;22.44;50.54;97102.88;4198023;28;5853;-72
2022/09/11 11:36:03;;;;;;;;;;;;;;;22.45;50.75;97094.53;4189335;28;5705;-77
2022/09/11 11:38:14;;;;;;;;;;;;;;;22.47;50.87;97096.97;4192880;28;5682;-75
2022/09/11 11:40:23;;;;;;;;;;;;;;;22.50;50.73;97099.13;4195983;28;5679;-68
2022/09/11 11:42:33;;;;;;;;;;;;;;;22.51;50.78;97104.25;4194475;28;5705;-69
2022/09/11 11:44:43;;;;;;;;;;;;;;;22.52;50.75;97103.19;4190134;28;5083;-69
2022/09/11 11:46:51;;;;;;;;;;;;;;;22.53;50.38;97098.59;4194225;28;5954;-69
2022/09/11 11:48:58;;;;;;;;;;;;;;;22.54;50.42;97097.56;4187467;28;5692;-69
2022/09/11 11:51:04;;;;;;;;;;;;;;;22.54;50.63;97090.28;4192272;28;5767;-71
2022/09/11 11:53:13;;;;;;;;;;;;;;;22.54;50.26;97092.16;4201014;28;5663;-72
2022/09/11 11:55:19;;;;;;;;;;;;;;;22.57;50.21;97091.63;4187289;28;5921;-72
2022/09/11 11:57:27;;;;;;;;;;;;;;;22.60;50.49;97091.91;4193970;28;5775;-70
2022/09/11 11:59:35;;;;;;;;;;;;;;;22.58;50.49;97083.28;4188245;28;5279;-71
2022/09/11 12:01:42;;;;;;;;;;;;;;;22.60;50.11;97080.31;4186539;28;5852;-69
2022/09/11 12:03:54;;;;;;;;;;;;;;;22.57;50.28;97076.28;4196939;28;5704;-73
2022/09/11 12:05:57;;;;;;;;;;;;;;;22.60;50.57;97075.75;4197213;28;5814;-68
2022/09/11 12:08:00;;;;;;;;;;;;;;;22.61;50.22;97077.38;4193148;28;5693;-83
2022/09/11 12:10:05;;;;;;;;;;;;;;;22.60;50.26;97073.06;4194807;28;6962;-67
2022/09/11 12:12:10;;;;;;;;;;;;;;;22.59;50.18;97074.13;4192003;28;5842;-69
2022/09/11 12:14:26;;;;;;;;;;;;;;;22.62;50.56;97068.19;4195378;28;5811;-69
2022/09/11 12:16:32;;;;;;;;;;;;;;;22.63;50.16;97059.03;4192568;28;5913;-71
2022/09/11 12:18:36;;;;;;;;;;;;;;;22.65;50.41;97059.63;4191982;28;5787;-67
2022/09/11 12:20:42;;;;;;;;;;;;;;;22.64;50.02;97052.56;4191887;28;5781;-70
2022/09/11 12:22:47;;;;;;;;;;;;;;;22.65;50.07;97062.31;4199044;28;5708;-71
2022/09/11 12:24:53;;;;;;;;;;;;;;;22.67;50.43;97060.16;4194999;28;5705;-69
2022/09/11 12:27:33;;;;;;;;;;;;;;;22.73;50.29;97054.78;4205453;28;5703;-68
2022/09/11 12:29:54;;;;;;;;;;;;;;;22.73;50.14;97065.56;4197621;28;6525;-67
2022/09/11 12:32:39;;;;;;;;;;;;;;;22.74;49.96;97061.78;4195230;28;5941;-67
2022/09/11 12:35:03;;;;;;;;;;;;;;;22.74;50.00;97064.47;4190081;28;5819;-69
2022/09/11 12:37:14;;;;;;;;;;;;;;;22.74;50.39;97064.47;4194335;28;5931;-68
2022/09/11 12:39:28;;;;;;;;;;;;;;;22.72;49.91;97051.25;4191614;28;5684;-68
2022/09/11 12:41:33;;;;;;;;;;;;;;;22.74;50.03;97051.00;4194376;28;5795;-68
2022/09/11 12:43:48;;;;;;;;;;;;;;;22.75;50.41;97041.84;4209932;28;6217;-69
2022/09/11 12:45:50;;;;;;;;;;;;;;;22.78;50.16;97041.31;4195079;28;5694;-68
2022/09/11 12:47:53;;;;;;;;;;;;;;;22.80;50.07;97047.25;4210131;28;5675;-69
2022/09/11 12:50:15;;;;;;;;;;;;;;;22.80;50.37;97044.56;4202274;28;5962;-73
2022/09/11 12:52:34;;;;;;;;;;;;;;;22.85;50.07;97028.44;4190975;28;5776;-74
2022/09/11 12:54:43;;;;;;;;;;;;;;;22.87;49.91;97037.84;4196300;28;5701;-73
2022/09/11 12:56:48;;;;;;;;;;;;;;;22.89;49.91;97034.94;4201088;28;5804;-79
2022/09/11 12:58:54;;;;;;;;;;;;;;;22.91;49.81;97032.78;4199040;28;5788;-77
2022/09/11 13:01:04;;;;;;;;;;;;;;;22.92;50.38;97024.41;4202911;28;5691;-86
2022/09/11 13:03:17;;;;;;;;;;;;;;;22.92;50.28;97026.31;4204534;28;5684;-80
2022/09/11 13:05:23;;;;;;;;;;;;;;;22.95;50.33;97031.16;4207085;28;5776;-75
2022/09/11 13:07:38;;;;;;;;;;;;;;;22.93;50.31;97017.13;4202128;28;5693;-75
2022/09/11 13:09:48;;;;;;;;;;;;;;;22.94;50.05;97016.84;4195944;28;5780;-76
2022/09/11 13:11:52;;;;;;;;;;;;;;;22.98;49.93;97019.00;4191977;28;5820;-75
2022/09/11 13:13:55;;;;;;;;;;;;;;;23.00;50.47;97017.69;4198323;28;5681;-77
2022/09/11 13:15:57;;;;;;;;;;;;;;;23.01;49.95;97011.22;4196580;28;5725;-71
2022/09/11 13:18:00;;;;;;;;;;;;;;;23.04;50.19;97005.28;4193891;28;7265;-73
2022/09/11 13:20:21;;;;;;;;;;;;;;;23.04;50.37;96999.09;4186444;28;5717;-68
2022/09/11 13:22:26;;;;;;;;;;;;;;;23.06;50.26;96995.03;4193020;28;5768;-69
2022/09/11 13:24:32;;;;;;;;;;;;;;;23.08;50.01;96997.47;4190627;28;5700;-70
2022/09/11 13:26:35;;;;;;;;;;;;;;;23.09;49.96;96997.19;4189121;28;5807;-67
2022/09/11 13:28:46;;;;;;;;;;;;;;;23.08;49.89;96992.88;4188869;28;5817;-69
2022/09/11 13:30:54;;;;;;;;;;;;;;;23.09;50.24;96983.72;4195325;28;5688;-77
2022/09/11 13:33:05;;;;;;;;;;;;;;;23.11;50.42;96988.88;4191332;28;5730;-74
2022/09/11 13:35:15;;;;;;;;;;;;;;;23.11;49.83;96986.97;4185186;28;5888;-71
2022/09/11 13:37:31;;;;;;;;;;;;;;;23.12;49.87;96985.09;4190796;28;5099;-70
2022/09/11 13:39:37;;;;;;;;;;;;;;;23.12;50.18;96983.19;4189394;28;5717;-76
2022/09/11 13:41:42;;;;;;;;;;;;;;;23.12;50.13;96983.19;4190085;28;5793;-79
2022/09/11 13:43:49;;;;;;;;;;;;;;;23.13;50.22;96975.91;4196943;28;5759;-68
2022/09/11 13:46:09;;;;;;;;;;;;;;;23.14;50.20;96981.03;4205583;28;5839;-72
2022/09/11 13:48:19;;;;;;;;;;;;;;;23.18;50.30;96973.22;4204303;28;5826;-73
2022/09/11 13:50:23;;;;;;;;;;;;;;;23.19;50.09;96964.84;4188471;28;5764;-73
2022/09/11 13:52:29;;;;;;;;;;;;;;;23.22;50.14;96964.31;4186297;28;5896;-72
2022/09/11 13:54:37;;;;;;;;;;;;;;;23.26;49.83;96958.38;4182739;28;5796;-71
2022/09/11 13:56:47;;;;;;;;;;;;;;;23.27;50.02;96962.69;4190696;28;5937;-72
2022/09/11 13:58:50;;;;;;;;;;;;;;;23.26;49.90;96961.09;4184260;28;6148;-72
2022/09/11 14:00:55;;;;;;;;;;;;;;;23.28;50.34;96953.53;4184825;28;5733;-72
2022/09/11 14:02:59;;;;;;;;;;;;;;;23.28;50.30;96950.84;4192123;28;5716;-72
2022/09/11 14:05:16;;;;;;;;;;;;;;;23.35;49.77;96956.78;4201250;28;5784;-72
2022/09/11 14:07:22;;;;;;;;;;;;;;;23.36;49.69;96947.59;4191378;28;5837;-72
2022/09/11 14:09:25;;;;;;;;;;;;;;;23.36;49.68;96950.28;4184741;28;5789;-72
2022/09/11 14:11:32;;;;;;;;;;;;;;;23.38;49.87;96946.25;4184880;28;5717;-72
2022/09/11 14:13:43;;;;;;;;;;;;;;;23.40;49.52;96938.69;4187621;28;5745;-72
2022/09/11 14:15:50;;;;;;;;;;;;;;;23.43;49.88;96948.91;4184201;28;5717;-71
2022/09/11 14:17:53;;;;;;;;;;;;;;;23.45;49.98;96945.97;4193639;28;7702;-72
2022/09/11 14:20:01;;;;;;;;;;;;;;;23.46;49.83;96950.28;4200945;28;5696;-72
2022/09/11 14:22:15;;;;;;;;;;;;;;;23.47;49.91;96944.63;4193787;28;5838;-73
2022/09/11 14:24:33;;;;;;;;;;;;;;;23.47;49.88;96938.41;4193527;28;6800;-71
2022/09/11 14:26:42;;;;;;;;;;;;;;;23.46;49.82;96953.00;4191326;28;5693;-71
2022/09/11 14:29:00;;;;;;;;;;;;;;;23.46;49.65;96956.50;4200517;28;5760;-71
2022/09/11 14:31:07;;;;;;;;;;;;;;;23.50;49.52;96954.06;4200912;28;5716;-71
2022/09/11 14:33:16;;;;;;;;;;;;;;;23.52;49.86;96946.50;4200661;28;5500;-70
2022/09/11 14:35:19;;;;;;;;;;;;;;;23.52;49.70;96946.50;4199691;28;5703;-70
2022/09/11 14:37:23;;;;;;;;;;;;;;;23.50;50.02;96944.06;4200984;28;5843;-70
2022/09/11 14:39:33;;;;;;;;;;;;;;;23.52;49.84;96941.09;4201393;28;5124;-70
2022/09/11 14:41:36;;;;;;;;;;;;;;;23.52;49.40;96930.31;4190687;28;5832;-70
2022/09/11 14:43:39;;;;;;;;;;;;;;;23.52;49.49;96938.41;4184176;28;5768;-70
2022/09/11 14:45:43;;;;;;;;;;;;;;;23.53;49.47;96926.53;4186836;28;5835;-70
2022/09/11 14:47:46;;;;;;;;;;;;;;;23.53;49.33;96929.22;4183767;28;6397;-70
2022/09/11 14:49:52;;;;;;;;;;;;;;;23.53;49.16;96921.13;4200668;28;5697;-71
2022/09/11 14:51:57;;;;;;;;;;;;;;;23.52;49.50;96925.72;4199004;28;5680;-70
2022/09/11 14:54:00;;;;;;;;;;;;;;;23.53;49.46;96921.13;4196869;28;5696;-71
2022/09/11 14:56:03;;;;;;;;;;;;;;;23.54;49.07;96918.16;4196163;28;5726;-70
2022/09/11 14:58:08;;;;;;;;;;;;;;;23.58;49.23;96915.75;4200506;28;5688;-71
2022/09/11 15:00:14;;;;;;;;;;;;;;;23.60;49.10;96915.47;4187798;28;5692;-70
2022/09/11 15:02:20;;;;;;;;;;;;;;;23.62;49.20;96908.72;4191859;28;5788;-70
2022/09/11 15:04:23;;;;;;;;;;;;;;;23.61;49.13;96911.69;4200074;28;5713;-69
2022/09/11 15:06:26;;;;;;;;;;;;;;;23.63;49.27;96915.75;4199231;28;5758;-71
2022/09/11 15:08:28;;;;;;;;;;;;;;;23.65;48.70;96921.66;4183350;28;5734;-70
2022/09/11 15:10:32;;;;;;;;;;;;;;;23.65;49.18;96927.06;4182834;28;5788;-69
2022/09/11 15:12:35;;;;;;;;;;;;;;;23.64;48.65;96916.53;4183080;28;5706;-72
2022/09/11 15:14:39;;;;;;;;;;;;;;;23.63;49.21;96913.03;4182484;28;5717;-69
2022/09/11 15:17:01;;;;;;;;;;;;;;;23.64;49.07;96913.84;4183469;28;5744;-70
2022/09/11 15:19:06;;;;;;;;;;;;;;;23.66;48.99;96909.78;4196128;28;5728;-70
2022/09/11 15:21:08;;;;;;;;;;;;;;;23.66;48.58;96915.19;4199487;28;5828;-70
2022/09/11 15:23:11;;;;;;;;;;;;;;;23.68;48.88;96912.25;4200361;28;6512;-70
2022/09/11 15:25:14;;;;;;;;;;;;;;;23.69;48.94;96908.44;4200347;28;6359;-70
2022/09/11 15:27:17;;;;;;;;;;;;;;;23.68;48.94;96907.66;4199560;28;6473;-70
2022/09/11 15:29:21;;;;;;;;;;;;;;;23.69;49.06;96909.25;4200194;28;5690;-70
2022/09/11 15:31:24;;;;;;;;;;;;;;;23.68;48.92;96904.94;4200299;28;5689;-71
2022/09/11 15:33:27;;;;;;;;;;;;;;;23.67;48.79;96903.34;4199880;28;5720;-70
2022/09/11 15:35:31;;;;;;;;;;;;;;;23.66;48.65;96899.00;4200407;28;5690;-71
2022/09/11 15:37:35;;;;;;;;;;;;;;;23.66;48.79;96898.19;4201096;28;5705;-71
2022/09/11 15:39:37;;;;;;;;;;;;;;;23.63;48.61;96883.34;4203468;28;5681;-71
2022/09/11 15:41:41;;;;;;;;;;;;;;;23.63;48.41;96887.94;4190854;28;6064;-71
2022/09/11 15:43:45;;;;;;;;;;;;;;;23.63;48.86;96888.75;4186845;28;7728;-71
2022/09/11 15:45:50;;;;;;;;;;;;;;;23.63;48.35;96888.75;4185387;28;5875;-71
2022/09/11 15:47:53;;;;;;;;;;;;;;;23.62;48.46;96887.13;4186705;28;5829;-71
2022/09/11 15:49:56;;;;;;;;;;;;;;;23.64;48.21;96884.97;4187264;28;5725;-71
2022/09/11 15:52:01;;;;;;;;;;;;;;;23.65;48.49;96883.88;4186542;28;6076;-72
2022/09/11 15:54:06;;;;;;;;;;;;;;;23.66;48.06;96882.78;4187737;28;5868;-70
2022/09/11 15:56:11;;;;;;;;;;;;;;;23.66;48.61;96884.69;4186731;28;5730;-71
2022/09/11 15:58:14;;;;;;;;;;;;;;;23.67;48.67;96878.22;4189625;28;5752;-71
2022/09/11 16:00:17;;;;;;;;;;;;;;;23.67;48.37;96872.81;4203749;28;5730;-70
2022/09/11 16:02:20;;;;;;;;;;;;;;;23.65;48.62;96875.78;4199688;28;5768;-71
2022/09/11 16:04:27;;;;;;;;;;;;;;;23.64;48.19;96874.16;4203315;28;5692;-71
2022/09/11 16:06:31;;;;;;;;;;;;;;;23.64;48.54;96874.16;4203158;28;5724;-71
2022/09/11 16:08:35;;;;;;;;;;;;;;;23.64;48.49;96873.38;4203055;28;5748;-73
2022/09/11 16:10:38;;;;;;;;;;;;;;;23.66;48.29;96874.69;4203353;28;5766;-71
2022/09/11 16:12:41;;;;;;;;;;;;;;;23.63;48.43;96864.47;4202899;28;7489;-71
2022/09/11 16:14:44;;;;;;;;;;;;;;;23.67;48.26;96872.81;4201389;28;5684;-71
2022/09/11 16:16:47;;;;;;;;;;;;;;;23.64;48.28;96865.28;4200613;28;6209;-72
2022/09/11 16:18:50;;;;;;;;;;;;;;;23.65;48.10;96870.38;4203642;28;6367;-72
2022/09/11 16:20:56;;;;;;;;;;;;;;;23.65;48.29;96867.69;4201578;28;5692;-72
2022/09/11 16:22:59;;;;;;;;;;;;;;;23.66;47.84;96874.69;4203229;28;7686;-71
2022/09/11 16:25:04;;;;;;;;;;;;;;;23.66;47.27;96869.31;4201948;28;5759;-71
2022/09/11 16:27:09;;;;;;;;;;;;;;;23.67;46.74;96870.09;4199531;28;5890;-71
2022/09/11 16:29:14;;;;;;;;;;;;;;;23.69;46.88;96870.66;4202862;28;5768;-71
2022/09/11 16:31:17;;;;;;;;;;;;;;;23.68;46.36;96869.06;4196402;28;5700;-72
2022/09/11 16:33:21;;;;;;;;;;;;;;;23.67;46.08;96876.34;4188760;28;5701;-71
2022/09/11 16:35:24;;;;;;;;;;;;;;;23.68;45.51;96869.88;4192156;28;5696;-71
2022/09/11 16:37:31;;;;;;;;;;;;;;;23.68;45.87;96869.88;4188771;28;5819;-71
2022/09/11 16:39:34;;;;;;;;;;;;;;;23.69;45.32;96874.19;4185867;28;5750;-71
2022/09/11 16:41:38;;;;;;;;;;;;;;;23.68;45.10;96869.88;4191153;28;5846;-70
2022/09/11 16:43:44;;;;;;;;;;;;;;;23.69;44.79;96868.78;4197180;28;5839;-69
2022/09/11 16:45:50;;;;;;;;;;;;;;;23.68;44.75;96866.34;4195583;28;5898;-76
2022/09/11 16:47:53;;;;;;;;;;;;;;;23.68;45.06;96869.06;4189606;28;5709;-73
2022/09/11 16:49:56;;;;;;;;;;;;;;;23.67;44.51;96870.94;4192008;28;5768;-73
2022/09/11 16:52:14;;;;;;;;;;;;;;;23.70;44.63;96867.69;4188066;28;5919;-68
2022/09/11 16:54:17;;;;;;;;;;;;;;;23.72;44.48;96865.53;4195428;28;5977;-69
2022/09/11 16:58:53;;;;;;;;;;;;;;;23.73;44.19;96869.84;4284639;23;5906;-80
2022/09/11 17:00:56;;;;;;;;;;;;;;;23.73;44.25;96867.13;4125675;28;5818;-78
2022/09/11 17:02:58;;;;;;;;;;;;;;;23.72;44.03;96872.81;4130247;28;5814;-77
2022/09/11 17:05:02;;;;;;;;;;;;;;;23.70;44.51;96866.88;4132927;28;5889;-75
2022/09/11 17:07:05;;;;;;;;;;;;;;;23.67;44.31;96873.66;4133735;28;6638;-73
2022/09/11 17:09:08;;;;;;;;;;;;;;;23.67;44.17;96870.94;4129010;28;5867;-76
2022/09/11 17:11:13;;;;;;;;;;;;;;;23.67;44.71;96868.25;4129384;28;6799;-81
2022/09/11 17:13:17;;;;;;;;;;;;;;;23.66;44.75;96861.22;4132744;28;5819;-75
2022/09/11 17:15:22;;;;;;;;;;;;;;;23.65;44.46;96866.88;4134062;28;5912;-74
2022/09/11 17:17:25;;;;;;;;;;;;;;;23.64;44.37;96868.78;4131644;28;5998;-73
2022/09/11 17:19:28;;;;;;;;;;;;;;;23.66;44.58;96871.19;4130899;28;5823;-77
2022/09/11 17:21:34;;;;;;;;;;;;;;;23.66;44.62;96866.59;4111139;28;5754;-74
2022/09/11 17:23:39;;;;;;;;;;;;;;;23.67;45.04;96859.31;4130991;28;6785;-76
2022/09/11 17:25:41;;;;;;;;;;;;;;;23.66;45.04;96863.91;4130331;28;5882;-76
2022/09/11 17:27:44;;;;;;;;;;;;;;;23.64;44.83;96859.88;4133668;28;5826;-79
2022/09/11 17:29:47;;;;;;;;;;;;;;;23.62;45.49;96862.84;4133067;28;5837;-76
2022/09/11 17:31:51;;;;;;;;;;;;;;;23.60;45.33;96861.50;4130992;28;5956;-76
2022/09/11 17:34:15;;;;;;;;;;;;;;;23.59;45.31;96863.41;4134300;28;5826;-81
2022/09/11 17:36:20;;;;;;;;;;;;;;;23.57;45.63;96862.84;4128903;28;6378;-80
2022/09/11 17:38:23;;;;;;;;;;;;;;;23.56;45.55;96857.69;4131825;28;6034;-78
2022/09/11 17:40:25;;;;;;;;;;;;;;;23.55;46.19;96865.00;4130776;28;5969;-83
2022/09/11 17:42:31;;;;;;;;;;;;;;;23.52;46.05;96852.84;4133027;28;5993;-78
2022/09/11 17:44:33;;;;;;;;;;;;;;;23.51;46.10;96867.44;4133997;28;5909;-82
2022/09/11 17:46:36;;;;;;;;;;;;;;;23.51;46.54;96856.66;4132829;28;5830;-78
2022/09/11 17:48:41;;;;;;;;;;;;;;;23.49;46.51;96860.69;4129077;28;5942;-73
2022/09/11 17:50:44;;;;;;;;;;;;;;;23.47;46.45;96863.69;4128695;28;7187;-73
2022/09/11 17:52:47;;;;;;;;;;;;;;;23.44;46.98;96858.84;4131344;28;6014;-73
2022/09/11 17:54:49;;;;;;;;;;;;;;;23.43;46.94;96861.78;4126419;28;6111;-85
2022/09/11 17:56:52;;;;;;;;;;;;;;;23.39;46.93;96860.72;4133187;28;5897;-83
2022/09/11 17:58:58;;;;;;;;;;;;;;;23.39;47.05;96866.13;4129737;28;5802;-80
2022/09/11 18:01:01;;;;;;;;;;;;;;;23.37;47.12;96863.69;4127650;28;5090;-75
2022/09/11 18:03:05;;;;;;;;;;;;;;;23.35;46.80;96859.66;4130025;28;5823;-76
2022/09/11 18:05:09;;;;;;;;;;;;;;;23.32;47.16;96866.38;4128679;28;6238;-80
2022/09/11 18:07:13;;;;;;;;;;;;;;;23.32;46.67;96862.88;4112547;28;5893;-76
2022/09/11 18:09:18;;;;;;;;;;;;;;;23.30;46.80;96867.75;4129891;28;5809;-73
2022/09/11 18:11:21;;;;;;;;;;;;;;;23.28;46.57;96869.91;4126382;28;5941;-66
2022/09/11 18:13:23;;;;;;;;;;;;;;;23.27;46.79;96871.00;4123883;28;5944;-67
2022/09/11 18:15:27;;;;;;;;;;;;;;;23.24;46.44;96867.78;4126970;28;5843;-69
2022/09/11 18:17:29;;;;;;;;;;;;;;;23.24;46.42;96865.06;4131020;28;5894;-72
2022/09/11 18:19:32;;;;;;;;;;;;;;;23.23;46.17;96873.44;4114794;28;5699;-70
2022/09/11 18:21:36;;;;;;;;;;;;;;;23.22;46.14;96867.25;4121763;28;5787;-71
2022/09/11 18:23:41;;;;;;;;;;;;;;;23.20;46.23;96869.38;4127754;28;5931;-76
2022/09/11 18:25:44;;;;;;;;;;;;;;;23.20;46.19;96865.88;4127184;28;5843;-71
2022/09/11 18:27:48;;;;;;;;;;;;;;;23.17;46.49;96864.53;4133199;28;5830;-79
2022/09/11 18:29:52;;;;;;;;;;;;;;;23.17;46.05;96858.34;4129520;28;5826;-74
2022/09/11 18:31:54;;;;;;;;;;;;;;;23.15;46.03;96877.47;4130903;28;5106;-74
2022/09/11 18:33:59;;;;;;;;;;;;;;;23.12;46.30;96867.25;4132248;28;5838;-70
2022/09/11 18:36:04;;;;;;;;;;;;;;;23.11;45.89;96872.91;4127823;28;6093;-74
2022/09/11 18:38:08;;;;;;;;;;;;;;;23.09;45.97;96873.16;4116552;28;5813;-84
2022/09/11 18:40:10;;;;;;;;;;;;;;;23.08;45.96;96871.53;4131216;28;5978;-82